Edmonds, Washington
Current Conditions -  °F | °C
As of 7:53 PM on Saturday 22 Nov 2014 (Local Time) from KPAE Reporting Station
Light Rain Light Rain  
Wind Chill: 40°   Ceiling: 7000
Heat Index: 45°   Visibility: 10mi
Dew Point: 41°   Wind: 10mph
Humidity: 86%   Direction: 160°SSE
Pressure: 30.05"   Gusts: NA
Location:  47.81°N, 122.37°W
Report Text: KPAE 230353Z 16009KT 10SM -RA FEW050 OVC070 07/05 A3005 RMK AO2 RAB47 SLP179 P0000 T00720050
Loading
Personal Weather Stations






























Interactive Weather Map New forecast layout! Learn more

10-Day Weather Forecast

Advertisements
Track Severe Weather on mobile